Погода Вышедкина неделю

Витебская область, Белоруссия

22 - 28 мая
  • 22мая
    Сегодня
    +12°
    +25°
    Небольшая облачность, возможен дождь с грозой
    ВремяПогодаТемператураВлажностьДавлениеВетер, м/сВероятность осадков
    00:00Ясно и безоблачно+14°C90 %749 мм2.2 м/с2 %
    03:00Ясно и безоблачно+13°C80 %749 мм3.1 м/с2 %
    06:00Ясно и безоблачно+12°C74 %749 мм3.5 м/с2 %
    09:00Ясно и безоблачно+17°C64 %750 мм2.9 м/с2 %
    12:00Ясно и безоблачно+22°C56 %750 мм3.2 м/с2 %
    15:00Небольшая облачность, возможен дождь с грозой+25°C49 %749 мм3.1 м/с24 %
    18:00Облачно с прояснениями+22°C69 %749 мм1.9 м/с44 %
    21:00Ясно и безоблачно+18°C82 %749 мм2.2 м/с5 %
  • 23мая
    Четверг
    +11°
    +24°
    Ясно и безоблачно
    ВремяПогодаТемператураВлажностьДавлениеВетер, м/сВероятность осадков
    00:00Ясно и безоблачно+16°C89 %750 мм3.4 м/с1 %
    03:00Ясно и безоблачно+13°C59 %751 мм4.2 м/с2 %
    06:00Ясно и безоблачно+12°C62 %752 мм4.4 м/с2 %
    09:00Ясно и безоблачно+17°C57 %753 мм4.2 м/с2 %
    12:00Ясно и безоблачно+21°C45 %753 мм5.2 м/с2 %
    15:00Ясно и безоблачно+23°C41 %753 мм4.6 м/с6 %
    18:00Ясно и безоблачно+23°C43 %753 мм4.9 м/с3 %
    21:00Ясно и безоблачно+18°C53 %754 мм3.8 м/с2 %
  • 24мая
    Пятница
    +10°
    +23°
    Ясно и безоблачно
    ВремяПогодаТемператураВлажностьДавлениеВетер, м/сВероятность осадков
    00:00Ясно и безоблачно+15°C56 %754 мм4.2 м/с2 %
    03:00Ясно и безоблачно+13°C62 %755 мм3.7 м/с2 %
    06:00Ясно и безоблачно+12°C66 %756 мм4.0 м/с2 %
    09:00Ясно и безоблачно+16°C54 %756 мм4.1 м/с2 %
    12:00Ясно и безоблачно+20°C44 %756 мм4.3 м/с2 %
    15:00Ясно и безоблачно+22°C40 %756 мм3.9 м/с2 %
    18:00Ясно и безоблачно+23°C41 %755 мм3.8 м/с2 %
    21:00Ясно и безоблачно+18°C54 %755 мм2.8 м/с2 %
  • 25мая
    Суббота
    +11°
    +25°
    Ясно и безоблачно
    ВремяПогодаТемператураВлажностьДавлениеВетер, м/сВероятность осадков
    00:00Ясно и безоблачно+14°C60 %755 мм3.0 м/с2 %
    03:00Ясно и безоблачно+12°C70 %755 мм2.4 м/с2 %
    06:00Ясно и безоблачно+12°C73 %755 мм2.6 м/с2 %
    09:00Ясно и безоблачно+17°C61 %755 мм2.2 м/с2 %
    12:00Ясно и безоблачно+22°C49 %755 мм2.2 м/с2 %
    15:00Ясно и безоблачно+23°C43 %754 мм2.1 м/с4 %
    18:00Ясно и безоблачно+25°C42 %753 мм1.7 м/с6 %
    21:00Ясно и безоблачно+20°C61 %752 мм1.8 м/с5 %
  • 26мая
    Воскресенье
    +14°
    +26°
    Небольшая облачность
    ВремяПогодаТемператураВлажностьДавлениеВетер, м/сВероятность осадков
    00:00Ясно и безоблачно+15°C81 %752 мм2.7 м/с2 %
    03:00Ясно и безоблачно+13°C87 %752 мм2.2 м/с2 %
    06:00Ясно и безоблачно+13°C81 %752 мм1.6 м/с6 %
    09:00Ясно и безоблачно+19°C61 %753 мм1.5 м/с4 %
    12:00Практически безоблачно+23°C43 %753 мм0.5 м/с13 %
    15:00Небольшая облачность+25°C41 %752 мм1.0 м/с18 %
    18:00Практически безоблачно+25°C43 %752 мм1.5 м/с18 %
    21:00Облачно с прояснениями+21°C69 %752 мм1.9 м/с9 %
Мы используем cookies
Соглашаюсь